UKDR

Kryvyi Rih International Airport

Kryvyi Rih, Ukraine
TAF UKDR 221113Z 2212/2312 10002MPS 3100 BR SCT011 TXM01/2312Z TNM12/2212Z TEMPO 2212/2218 1100 BR OVC004 BECMG 2222/2224 10005G10MPS 2100 -SN BR OVC007 BECMG 2302/2304 11010G15MPS 1500 SN BLSN OVC004 TEMPO 2304/2312 0500 +SHSN BLSN VV002
Issued Valid From Valid To
Jan-22 @ 11:13 UTC
(6 hours ago)
Jan-22 @ 12:00 UTC
(5 hours ago)
Jan-23 @ 12:00 UTC
(in 19 hours)
Jan-22 @ 12:00 to Jan-22 @ 22:00
TAF UKDR 221113Z 2212/2312 10002MPS 3100 BR SCT011 TXM01/2312Z TNM12/2212Z
Wind Visibility Clouds Conditions
100° at 4 knots 3,106 meters
  • Scattered at 1,100' AGL
  • Mist
Temporary Jan-22 @ 12:00 to Jan-22 @ 18:00
TEMPO 2212/2218 1100 BR OVC004
Visibility Clouds Conditions
1,094 meters
  • Overcast at 400' AGL
  • Mist
Becoming Jan-22 @ 22:00 to Jan-23 @ 02:00
BECMG 2222/2224 10005G10MPS 2100 -SN BR OVC007
Wind Visibility Clouds Conditions
100° at 10 knots
 Gusting to 19 knots
2,092 meters
  • Overcast at 700' AGL
  • Light Snow
  • Mist
Becoming Jan-23 @ 02:00 to Jan-23 @ 12:00
BECMG 2302/2304 11010G15MPS 1500 SN BLSN OVC004
Wind Visibility Clouds Conditions
110° at 19 knots
 Gusting to 29 knots
1,497 meters
  • Overcast at 400' AGL
  • Snow
  • Blowing
  • Snow
Temporary Jan-23 @ 04:00 to Jan-23 @ 12:00
TEMPO 2304/2312 0500 +SHSN BLSN VV002
Visibility Clouds Conditions
499 meters
  • Vertical visibility at 200' AGL
  • Heavy Snow
  • Blowing
  • Snow
TAF UKDR 221113Z 2212/2312 10002MPS 3100 BR SCT011 TXM01/2312Z TNM12/2212Z TEMPO 2212/2218 1100 BR OVC004 BECMG 2222/2224 10005G10MPS 2100 -SN BR OVC007 BECMG 2302/2304 11010G15MPS 1500 SN BLSN OVC004 TEMPO 2304/2312 0500 +SHSN BLSN VV002
Issued Jan-22 @ 11:13 UTC
(6 hours ago)
Valid From Jan-22 @ 12:00 UTC
(5 hours ago)
Valid To Jan-23 @ 12:00 UTC
(in 19 hours)
Jan-22 @ 12:00 - Jan-22 @ 22:00
Wind Visibility
100° at 4 knots 3,106 meters
Clouds
  • Scattered at 1,100' AGL
Conditions
  • Mist
Temporary Jan-22 @ 12:00 - Jan-22 @ 18:00
Clouds
  • Overcast at 400' AGL
Conditions
  • Mist
Becoming Jan-22 @ 22:00 - Jan-23 @ 02:00
Wind Visibility
100° at 10 knots
 Gusting to 19 knots
2,092 meters
Clouds
  • Overcast at 700' AGL
Conditions
  • Light Snow
  • Mist
Becoming Jan-23 @ 02:00 - Jan-23 @ 12:00
Wind Visibility
110° at 19 knots
 Gusting to 29 knots
1,497 meters
Clouds
  • Overcast at 400' AGL
Conditions
  • Snow
  • Blowing
  • Snow
Temporary Jan-23 @ 04:00 - Jan-23 @ 12:00
Clouds
  • Vertical visibility at 200' AGL
Conditions
  • Heavy Snow
  • Blowing
  • Snow